TimeCDT,TemperatureF,Dew PointF,Humidity,Sea Level PressureIn,VisibilityMPH,Wind Direction,Wind SpeedMPH,Gust SpeedMPH,PrecipitationIn,Events,Conditions,WindDirDegrees,DateUTC
12:15 AM,37.4,30.2,75,30.25,10.0,Calm,Calm,-,N/A,,Clear,0,2013-03-29 05:15:00
12:35 AM,35.6,30.2,81,30.25,10.0,Calm,Calm,-,N/A,,Clear,0,2013-03-29 05:35:00
12:55 AM,35.6,30.2,81,30.25,10.0,Calm,Calm,-,N/A,,Clear,0,2013-03-29 05:55:00
1:15 AM,35.6,30.2,81,30.25,10.0,Calm,Calm,-,N/A,,Scattered Clouds,0,2013-03-29 06:15:00
1:35 AM,35.6,30.2,81,30.26,10.0,Calm,Calm,-,N/A,,Scattered Clouds,0,2013-03-29 06:35:00
1:55 AM,35.6,28.4,75,30.26,7.0,Calm,Calm,-,N/A,,Mostly Cloudy,0,2013-03-29 06:55:00
2:15 AM,35.6,30.2,81,30.25,10.0,Calm,Calm,-,N/A,,Mostly Cloudy,0,2013-03-29 07:15:00
2:34 AM,35.6,30.2,81,30.25,10.0,Calm,Calm,-,N/A,,Overcast,0,2013-03-29 07:34:00
2:55 AM,35.6,30.2,81,30.25,10.0,Calm,Calm,-,N/A,,Overcast,0,2013-03-29 07:55:00
3:15 AM,35.6,30.2,81,30.26,7.0,Calm,Calm,-,N/A,,Overcast,0,2013-03-29 08:15:00
3:35 AM,35.6,30.2,81,30.26,7.0,Calm,Calm,-,N/A,,Mostly Cloudy,0,2013-03-29 08:35:00
3:55 AM,33.8,30.2,87,30.25,7.0,Calm,Calm,-,N/A,,Scattered Clouds,0,2013-03-29 08:55:00
4:15 AM,35.6,30.2,81,30.24,7.0,Calm,Calm,-,N/A,,Mostly Cloudy,0,2013-03-29 09:15:00
4:34 AM,35.6,30.2,81,30.24,7.0,Calm,Calm,-,N/A,,Mostly Cloudy,0,2013-03-29 09:34:00
4:55 AM,35.6,30.2,81,30.23,10.0,Calm,Calm,-,N/A,,Mostly Cloudy,0,2013-03-29 09:55:00
5:15 AM,35.6,30.2,81,30.23,10.0,Calm,Calm,-,N/A,,Overcast,0,2013-03-29 10:15:00
5:34 AM,35.6,30.2,81,30.23,10.0,Calm,Calm,-,N/A,,Overcast,0,2013-03-29 10:34:00
5:55 AM,35.6,30.2,81,30.24,10.0,Calm,Calm,-,N/A,,Overcast,0,2013-03-29 10:55:00
6:15 AM,35.6,30.2,81,30.23,10.0,Calm,Calm,-,N/A,,Overcast,0,2013-03-29 11:15:00
6:35 AM,35.6,30.2,81,30.24,10.0,Calm,Calm,-,N/A,,Mostly Cloudy,0,2013-03-29 11:35:00
6:55 AM,35.6,30.2,81,30.24,10.0,Calm,Calm,-,N/A,,Overcast,0,2013-03-29 11:55:00
7:15 AM,35.6,30.2,81,30.24,10.0,Calm,Calm,-,N/A,,Overcast,0,2013-03-29 12:15:00
7:34 AM,37.4,30.2,75,30.24,10.0,Calm,Calm,-,N/A,,Overcast,0,2013-03-29 12:34:00
7:55 AM,37.4,30.2,75,30.24,10.0,SE,5.8,-,N/A,,Mostly Cloudy,140,2013-03-29 12:55:00
8:15 AM,37.4,30.2,75,30.24,10.0,Calm,Calm,-,N/A,,Mostly Cloudy,0,2013-03-29 13:15:00
8:35 AM,37.4,30.2,75,30.25,10.0,Calm,Calm,-,N/A,,Mostly Cloudy,0,2013-03-29 13:35:00
8:55 AM,39.2,30.2,70,30.24,10.0,SSE,8.1,-,N/A,,Mostly Cloudy,160,2013-03-29 13:55:00
9:15 AM,39.2,30.2,70,30.24,10.0,Calm,Calm,-,N/A,,Mostly Cloudy,0,2013-03-29 14:15:00
9:34 AM,41.0,32.0,70,30.23,10.0,SE,8.1,-,N/A,,Scattered Clouds,140,2013-03-29 14:34:00
9:55 AM,42.8,33.8,70,30.24,10.0,Calm,Calm,-,N/A,,Scattered Clouds,0,2013-03-29 14:55:00
10:15 AM,42.8,33.8,70,30.23,10.0,SSE,10.4,-,N/A,,Clear,160,2013-03-29 15:15:00
10:35 AM,44.6,33.8,66,30.23,10.0,South,10.4,-,N/A,,Scattered Clouds,170,2013-03-29 15:35:00
10:55 AM,46.4,33.8,62,30.23,10.0,SSE,12.7,-,N/A,,Scattered Clouds,160,2013-03-29 15:55:00
11:14 AM,48.2,35.6,62,30.23,10.0,South,11.5,-,N/A,,Scattered Clouds,170,2013-03-29 16:14:00
11:55 AM,53.6,37.4,54,30.22,10.0,South,12.7,-,N/A,,Clear,170,2013-03-29 16:55:00
12:15 PM,53.6,39.2,58,30.21,10.0,South,12.7,-,N/A,,Clear,170,2013-03-29 17:15:00
12:35 PM,55.4,37.4,51,30.20,10.0,South,18.4,-,N/A,,Clear,170,2013-03-29 17:35:00
12:54 PM,55.4,39.2,54,30.20,10.0,South,16.1,-,N/A,,Scattered Clouds,170,2013-03-29 17:54:00
1:15 PM,57.2,37.4,48,30.20,10.0,South,18.4,-,N/A,,Clear,180,2013-03-29 18:15:00
1:35 PM,57.2,35.6,44,30.19,10.0,South,18.4,-,N/A,,Clear,180,2013-03-29 18:35:00
1:55 PM,57.2,35.6,44,30.18,10.0,South,16.1,-,N/A,,Clear,170,2013-03-29 18:55:00
2:15 PM,57.2,35.6,44,30.18,10.0,South,19.6,-,N/A,,Clear,180,2013-03-29 19:15:00
2:35 PM,57.2,35.6,44,30.17,10.0,SSE,20.7,24.2,N/A,,Clear,160,2013-03-29 19:35:00
2:55 PM,59.0,35.6,42,30.16,10.0,South,17.3,21.9,N/A,,Clear,170,2013-03-29 19:55:00
3:14 PM,57.2,37.4,48,30.15,10.0,SSE,18.4,23.0,N/A,,Clear,160,2013-03-29 20:14:00
3:33 PM,57.2,37.4,48,30.15,10.0,SSE,17.3,24.2,N/A,,Clear,160,2013-03-29 20:33:00
3:55 PM,57.2,35.6,44,30.14,10.0,SSE,17.3,-,N/A,,Clear,160,2013-03-29 20:55:00
4:15 PM,57.2,37.4,48,30.13,10.0,SSE,16.1,23.0,N/A,,Clear,160,2013-03-29 21:15:00
4:34 PM,57.2,35.6,44,30.13,10.0,SSE,16.1,24.2,N/A,,Clear,160,2013-03-29 21:34:00
4:55 PM,59.0,35.6,42,30.12,10.0,SSE,16.1,-,N/A,,Clear,160,2013-03-29 21:55:00
5:15 PM,57.2,35.6,44,30.11,10.0,SSE,18.4,21.9,N/A,,Clear,160,2013-03-29 22:15:00
5:35 PM,57.2,37.4,48,30.11,10.0,South,16.1,-,N/A,,Clear,170,2013-03-29 22:35:00
5:55 PM,57.2,37.4,48,30.10,10.0,South,17.3,23.0,N/A,,Clear,170,2013-03-29 22:55:00
6:15 PM,57.2,37.4,48,30.11,10.0,SSE,13.8,18.4,N/A,,Clear,160,2013-03-29 23:15:00
6:35 PM,57.2,37.4,48,30.11,10.0,SSE,11.5,20.7,N/A,,Clear,160,2013-03-29 23:35:00
6:54 PM,55.4,39.2,54,30.10,10.0,SSE,9.2,-,N/A,,Clear,150,2013-03-29 23:54:00
7:15 PM,53.6,39.2,58,30.09,10.0,SE,9.2,-,N/A,,Clear,140,2013-03-30 00:15:00
7:35 PM,51.8,39.2,62,30.09,10.0,SE,10.4,-,N/A,,Clear,140,2013-03-30 00:35:00
7:55 PM,50.0,39.2,66,30.08,10.0,SE,9.2,-,N/A,,Clear,140,2013-03-30 00:55:00
8:15 PM,50.0,39.2,66,30.08,10.0,SE,8.1,-,N/A,,Clear,130,2013-03-30 01:15:00
8:35 PM,48.2,39.2,71,30.08,10.0,SE,8.1,-,N/A,,Clear,130,2013-03-30 01:35:00
8:55 PM,48.2,37.4,66,30.07,10.0,SE,8.1,-,N/A,,Clear,130,2013-03-30 01:55:00
9:15 PM,46.4,37.4,71,30.07,10.0,SE,9.2,-,N/A,,Mostly Cloudy,130,2013-03-30 02:15:00
9:35 PM,46.4,37.4,71,30.07,10.0,SE,9.2,-,N/A,,Mostly Cloudy,130,2013-03-30 02:35:00
9:54 PM,46.4,37.4,71,30.06,10.0,Calm,Calm,-,N/A,,Overcast,0,2013-03-30 02:54:00
10:15 PM,46.4,37.4,71,30.06,10.0,SE,9.2,-,N/A,,Overcast,130,2013-03-30 03:15:00
10:35 PM,46.4,37.4,71,30.05,10.0,SE,11.5,-,N/A,,Mostly Cloudy,140,2013-03-30 03:35:00
10:55 PM,46.4,37.4,71,30.05,10.0,SE,11.5,-,N/A,,Mostly Cloudy,140,2013-03-30 03:55:00
11:15 PM,46.4,37.4,71,30.04,10.0,SSE,11.5,-,N/A,,Mostly Cloudy,150,2013-03-30 04:15:00
11:34 PM,46.4,37.4,71,30.04,10.0,SSE,10.4,-,N/A,,Mostly Cloudy,150,2013-03-30 04:34:00
11:55 PM,46.4,35.6,66,30.03,10.0,SSE,12.7,-,N/A,,Mostly Cloudy,150,2013-03-30 04:55:00